createdAt,value
2017-12-22T00:00:12.773Z,1029.05
2017-12-22T00:01:12.751Z,1029.02
2017-12-22T00:02:12.828Z,1029.02
2017-12-22T00:03:12.704Z,1029.03
2017-12-22T00:04:12.681Z,1029.02
2017-12-22T00:05:12.659Z,1028.99
2017-12-22T00:06:12.637Z,1029.02
2017-12-22T00:07:12.614Z,1029.09
2017-12-22T00:08:12.591Z,1029.02
2017-12-22T00:09:12.567Z,1029.08
2017-12-22T00:10:12.553Z,1029.04
2017-12-22T00:11:12.522Z,1029.05
2017-12-22T00:12:12.751Z,1029.02
2017-12-22T00:13:12.477Z,1029.05
2017-12-22T00:14:12.455Z,1029.05
2017-12-22T00:15:12.432Z,1029.05
2017-12-22T00:16:12.408Z,1029.02
2017-12-22T00:17:12.385Z,1029.02
2017-12-22T00:18:12.361Z,1029.02
2017-12-22T00:19:12.340Z,1029.02
2017-12-22T00:20:12.416Z,1028.98
2017-12-22T00:21:12.294Z,1028.94
2017-12-22T00:22:12.271Z,1028.92
2017-12-22T00:23:12.252Z,1028.93
2017-12-22T00:24:12.225Z,1028.95
2017-12-22T00:25:12.203Z,1028.93
2017-12-22T00:26:12.180Z,1028.84
2017-12-22T00:27:12.156Z,1028.83
2017-12-22T00:28:12.133Z,1028.85
2017-12-22T00:29:12.111Z,1028.87
2017-12-22T00:30:12.089Z,1028.82
2017-12-22T00:31:12.215Z,1028.87
2017-12-22T00:32:12.043Z,1028.81
2017-12-22T00:33:12.018Z,1028.82
2017-12-22T00:34:11.998Z,1028.87
2017-12-22T00:35:11.973Z,1028.85
2017-12-22T00:36:11.950Z,1028.84
2017-12-22T00:37:11.936Z,1028.86
2017-12-22T00:38:11.907Z,1028.86
2017-12-22T00:39:11.883Z,1028.85
2017-12-22T00:40:11.860Z,1028.83
2017-12-22T00:41:11.837Z,1028.84
2017-12-22T00:42:11.815Z,1028.86
2017-12-22T00:43:11.791Z,1028.84
2017-12-22T00:44:11.768Z,1028.82
2017-12-22T00:45:11.748Z,1028.81
2017-12-22T00:46:11.724Z,1028.80
2017-12-22T00:47:11.701Z,1028.79
2017-12-22T00:48:11.678Z,1028.74
2017-12-22T00:49:11.655Z,1028.72
2017-12-22T00:50:11.632Z,1028.70
2017-12-22T00:51:11.711Z,1028.72
2017-12-22T00:52:11.587Z,1028.68
2017-12-22T00:53:11.564Z,1028.69
2017-12-22T00:54:11.541Z,1028.71
2017-12-22T00:55:11.518Z,1028.64
2017-12-22T00:56:11.495Z,1028.66
2017-12-22T00:57:11.473Z,1028.64
2017-12-22T00:58:11.450Z,1028.60
2017-12-22T00:59:11.429Z,1028.63
2017-12-22T01:00:11.408Z,1028.63
2017-12-22T01:01:11.383Z,1028.65
2017-12-22T01:02:11.363Z,1028.63
2017-12-22T01:03:11.337Z,1028.66
2017-12-22T01:04:11.314Z,1028.61
2017-12-22T01:05:11.292Z,1028.61
2017-12-22T01:06:11.517Z,1028.60
2017-12-22T01:07:11.246Z,1028.56
2017-12-22T01:08:11.223Z,1028.58
2017-12-22T01:09:11.199Z,1028.55
2017-12-22T01:10:11.176Z,1028.57
2017-12-22T01:11:11.154Z,1028.57
2017-12-22T01:12:11.131Z,1028.58
2017-12-22T01:13:11.108Z,1028.54
2017-12-22T01:14:11.085Z,1028.54
2017-12-22T01:15:11.063Z,1028.58
2017-12-22T01:16:11.038Z,1028.57
2017-12-22T01:17:11.017Z,1028.59
2017-12-22T01:18:10.993Z,1028.58
2017-12-22T01:19:10.971Z,1028.59
2017-12-22T01:20:10.948Z,1028.54
2017-12-22T01:21:10.925Z,1028.55
2017-12-22T01:22:10.902Z,1028.53
2017-12-22T01:23:10.879Z,1028.53
2017-12-22T01:24:11.106Z,1028.52
2017-12-22T01:25:10.833Z,1028.50
2017-12-22T01:26:10.811Z,1028.55
2017-12-22T01:27:10.788Z,1028.53
2017-12-22T01:28:10.763Z,1028.52
2017-12-22T01:29:10.740Z,1028.53
2017-12-22T01:30:10.717Z,1028.47
2017-12-22T01:31:10.695Z,1028.48
2017-12-22T01:32:10.672Z,1028.42
2017-12-22T01:33:10.648Z,1028.44
2017-12-22T01:34:10.627Z,1028.37
2017-12-22T01:35:10.603Z,1028.40
2017-12-22T01:36:10.579Z,1028.42
2017-12-22T01:37:10.556Z,1028.42
2017-12-22T01:38:10.633Z,1028.44
2017-12-22T01:39:10.512Z,1028.46
2017-12-22T01:40:10.487Z,1028.42
2017-12-22T01:41:10.465Z,1028.43
2017-12-22T01:42:10.441Z,1028.46
2017-12-22T01:43:10.418Z,1028.45
2017-12-22T01:44:10.395Z,1028.51
2017-12-22T01:45:10.374Z,1028.54
2017-12-22T01:46:10.351Z,1028.52
2017-12-22T01:47:10.327Z,1028.54
2017-12-22T01:48:10.354Z,1028.54
2017-12-22T01:49:10.280Z,1028.60
2017-12-22T01:50:10.257Z,1028.55
2017-12-22T01:51:10.237Z,1028.58
2017-12-22T01:52:10.212Z,1028.59
2017-12-22T01:53:10.189Z,1028.59
2017-12-22T01:54:10.165Z,1028.55
2017-12-22T01:55:10.143Z,1028.58
2017-12-22T01:56:10.119Z,1028.59
2017-12-22T01:57:10.097Z,1028.59
2017-12-22T01:58:10.073Z,1028.60
2017-12-22T01:59:10.050Z,1028.60
2017-12-22T02:00:10.027Z,1028.58
2017-12-22T02:01:10.004Z,1028.55
2017-12-22T02:02:09.982Z,1028.53
2017-12-22T02:03:09.959Z,1028.54
2017-12-22T02:04:10.189Z,1028.58
2017-12-22T02:05:09.912Z,1028.57
2017-12-22T02:06:09.890Z,1028.56
2017-12-22T02:07:09.867Z,1028.57
2017-12-22T02:08:09.843Z,1028.59
2017-12-22T02:09:09.819Z,1028.59
2017-12-22T02:10:09.799Z,1028.58
2017-12-22T02:11:09.775Z,1028.59
2017-12-22T02:12:09.751Z,1028.59
2017-12-22T02:13:09.729Z,1028.54
2017-12-22T02:14:09.706Z,1028.59
2017-12-22T02:15:09.686Z,1028.56
2017-12-22T02:16:09.659Z,1028.56
2017-12-22T02:17:09.638Z,1028.57
2017-12-22T02:18:09.614Z,1028.58
2017-12-22T02:19:09.592Z,1028.54
2017-12-22T02:20:09.568Z,1028.56
2017-12-22T02:21:09.545Z,1028.56
2017-12-22T02:22:09.772Z,1028.57
2017-12-22T02:23:09.500Z,1028.58
2017-12-22T02:24:09.477Z,1028.55
2017-12-22T02:25:09.454Z,1028.58
2017-12-22T02:26:09.430Z,1028.63
2017-12-22T02:27:09.408Z,1028.61
2017-12-22T02:28:09.384Z,1028.64
2017-12-22T02:29:09.361Z,1028.63
2017-12-22T02:30:09.339Z,1028.65
2017-12-22T02:31:09.316Z,1028.65
2017-12-22T02:32:09.442Z,1028.66
2017-12-22T02:33:09.271Z,1028.64
2017-12-22T02:34:09.248Z,1028.60
2017-12-22T02:35:09.224Z,1028.66
2017-12-22T02:36:09.200Z,1028.64
2017-12-22T02:37:09.177Z,1028.65
2017-12-22T02:38:09.154Z,1028.64
2017-12-22T02:39:09.131Z,1028.66
2017-12-22T02:40:09.108Z,1028.65
2017-12-22T02:41:09.087Z,1028.65
2017-12-22T02:42:09.062Z,1028.66
2017-12-22T02:43:09.289Z,1028.65
2017-12-22T02:44:09.017Z,1028.59
2017-12-22T02:45:08.993Z,1028.60
2017-12-22T02:46:08.974Z,1028.61
2017-12-22T02:47:08.949Z,1028.65
2017-12-22T02:48:08.926Z,1028.62
2017-12-22T02:49:08.903Z,1028.60
2017-12-22T02:50:08.885Z,1028.64
2017-12-22T02:51:09.007Z,1028.60
2017-12-22T02:52:08.834Z,1028.63
2017-12-22T02:53:08.810Z,1028.62
2017-12-22T02:54:08.787Z,1028.63
2017-12-22T02:55:08.766Z,1028.65
2017-12-22T02:56:08.743Z,1028.64
2017-12-22T02:57:08.720Z,1028.64
2017-12-22T02:58:08.696Z,1028.68
2017-12-22T02:59:08.672Z,1028.68
2017-12-22T03:00:08.650Z,1028.69
2017-12-22T03:01:08.626Z,1028.71
2017-12-22T03:02:08.603Z,1028.68
2017-12-22T03:03:08.582Z,1028.69
2017-12-22T03:04:08.557Z,1028.71
2017-12-22T03:05:08.534Z,1028.71
2017-12-22T03:06:08.512Z,1028.72
2017-12-22T03:07:08.489Z,1028.70
2017-12-22T03:08:08.466Z,1028.72
2017-12-22T03:09:08.442Z,1028.72
2017-12-22T03:10:08.419Z,1028.69
2017-12-22T03:11:08.397Z,1028.69
2017-12-22T03:12:08.373Z,1028.71
2017-12-22T03:13:08.350Z,1028.71
2017-12-22T03:14:08.328Z,1028.69
2017-12-22T03:15:08.305Z,1028.67
2017-12-22T03:16:08.282Z,1028.64
2017-12-22T03:17:08.259Z,1028.63
2017-12-22T03:18:08.235Z,1028.61
2017-12-22T03:19:08.463Z,1028.64
2017-12-22T03:20:08.189Z,1028.63
2017-12-22T03:21:08.167Z,1028.69
2017-12-22T03:22:08.144Z,1028.66
2017-12-22T03:23:08.121Z,1028.70
2017-12-22T03:24:08.096Z,1028.67
2017-12-22T03:25:08.075Z,1028.71
2017-12-22T03:26:08.050Z,1028.68
2017-12-22T03:27:08.028Z,1028.70
2017-12-22T03:28:08.004Z,1028.67
2017-12-22T03:29:07.982Z,1028.67
2017-12-22T03:30:07.961Z,1028.65
2017-12-22T03:31:07.938Z,1028.71
2017-12-22T03:32:07.911Z,1028.64
2017-12-22T03:33:07.888Z,1028.64
2017-12-22T03:34:07.866Z,1028.64
2017-12-22T03:35:07.842Z,1028.64
2017-12-22T03:36:07.818Z,1028.67
2017-12-22T03:37:07.795Z,1028.69
2017-12-22T03:38:07.772Z,1028.70
2017-12-22T03:39:07.750Z,1028.70
2017-12-22T03:40:07.725Z,1028.73
2017-12-22T03:41:07.701Z,1028.71
2017-12-22T03:42:07.679Z,1028.72
2017-12-22T03:43:07.655Z,1028.73
2017-12-22T03:44:07.631Z,1028.76
2017-12-22T03:45:07.608Z,1028.80
2017-12-22T03:46:07.584Z,1028.77
2017-12-22T03:47:07.562Z,1028.75
2017-12-22T03:48:07.538Z,1028.76
2017-12-22T03:49:07.515Z,1028.70
2017-12-22T03:50:07.493Z,1028.74
2017-12-22T03:51:07.471Z,1028.73
2017-12-22T03:52:07.445Z,1028.76
2017-12-22T03:53:07.423Z,1028.73
2017-12-22T03:54:07.403Z,1028.74
2017-12-22T03:55:07.376Z,1028.72
2017-12-22T03:56:07.353Z,1028.75
2017-12-22T03:57:07.329Z,1028.76
2017-12-22T03:58:07.306Z,1028.75
2017-12-22T03:59:07.284Z,1028.73
2017-12-22T04:00:07.259Z,1028.77
2017-12-22T04:01:07.236Z,1028.76
2017-12-22T04:02:07.464Z,1028.72
2017-12-22T04:03:07.191Z,1028.71
2017-12-22T04:04:07.166Z,1028.75
2017-12-22T04:05:07.144Z,1028.74
2017-12-22T04:06:07.121Z,1028.72
2017-12-22T04:07:07.098Z,1028.72
2017-12-22T04:08:07.073Z,1028.73
2017-12-22T04:09:07.051Z,1028.73
2017-12-22T04:10:07.030Z,1028.75
2017-12-22T04:11:07.054Z,1028.77
2017-12-22T04:12:06.980Z,1028.82
2017-12-22T04:13:06.962Z,1028.80
2017-12-22T04:14:06.935Z,1028.80
2017-12-22T04:15:06.911Z,1028.80
2017-12-22T04:16:06.886Z,1028.83
2017-12-22T04:17:06.868Z,1028.79
2017-12-22T04:18:06.842Z,1028.74
2017-12-22T04:19:06.819Z,1028.76
2017-12-22T04:20:06.793Z,1028.73
2017-12-22T04:21:07.022Z,1028.73
2017-12-22T04:22:06.748Z,1028.69
2017-12-22T04:23:06.726Z,1028.71
2017-12-22T04:24:06.702Z,1028.70
2017-12-22T04:25:06.679Z,1028.74
2017-12-22T04:26:06.655Z,1028.70
2017-12-22T04:27:06.632Z,1028.72
2017-12-22T04:28:06.609Z,1028.73
2017-12-22T04:29:06.686Z,1028.70
2017-12-22T04:30:06.567Z,1028.70
2017-12-22T04:31:06.540Z,1028.70
2017-12-22T04:32:06.517Z,1028.69
2017-12-22T04:33:06.493Z,1028.69
2017-12-22T04:34:06.471Z,1028.73
2017-12-22T04:35:06.446Z,1028.74
2017-12-22T04:36:06.424Z,1028.74
2017-12-22T04:37:06.400Z,1028.75
2017-12-22T04:38:06.377Z,1028.79
2017-12-22T04:39:06.605Z,1028.80
2017-12-22T04:40:06.330Z,1028.78
2017-12-22T04:41:06.307Z,1028.76
2017-12-22T04:42:06.285Z,1028.79
2017-12-22T04:43:06.261Z,1028.72
2017-12-22T04:44:06.238Z,1028.73
2017-12-22T04:45:06.470Z,1028.76
2017-12-22T04:46:06.191Z,1028.74
2017-12-22T04:47:06.169Z,1028.77
2017-12-22T04:48:06.145Z,1028.76
2017-12-22T04:49:06.122Z,1028.77
2017-12-22T04:50:06.200Z,1028.71
2017-12-22T04:51:06.078Z,1028.73
2017-12-22T04:52:06.055Z,1028.74
2017-12-22T04:53:06.038Z,1028.79
2017-12-22T04:54:06.006Z,1028.76
2017-12-22T04:55:06.235Z,1028.81
2017-12-22T04:56:05.961Z,1028.80
2017-12-22T04:57:05.938Z,1028.81
2017-12-22T04:58:05.914Z,1028.83
2017-12-22T04:59:05.891Z,1028.83
2017-12-22T05:00:05.970Z,1028.86
2017-12-22T05:01:05.845Z,1028.87
2017-12-22T05:02:05.823Z,1028.89
2017-12-22T05:03:05.799Z,1028.88
2017-12-22T05:04:05.776Z,1028.84
2017-12-22T05:05:05.753Z,1028.87
2017-12-22T05:06:05.730Z,1028.85
2017-12-22T05:07:05.707Z,1028.81
2017-12-22T05:08:05.683Z,1028.80
2017-12-22T05:09:05.660Z,1028.81
2017-12-22T05:10:05.637Z,1028.80
2017-12-22T05:11:05.613Z,1028.82
2017-12-22T05:12:05.591Z,1028.82
2017-12-22T05:13:05.568Z,1028.79
2017-12-22T05:14:05.545Z,1028.87
2017-12-22T05:15:05.522Z,1028.88
2017-12-22T05:16:05.501Z,1028.90
2017-12-22T05:17:05.475Z,1028.92
2017-12-22T05:18:05.451Z,1028.92
2017-12-22T05:19:05.429Z,1028.94
2017-12-22T05:20:05.410Z,1028.93
2017-12-22T05:21:05.383Z,1028.94
2017-12-22T05:22:05.362Z,1028.93
2017-12-22T05:23:05.339Z,1028.93
2017-12-22T05:24:05.317Z,1028.91
2017-12-22T05:25:05.291Z,1028.87
2017-12-22T05:26:05.278Z,1028.89
2017-12-22T05:27:05.245Z,1028.89
2017-12-22T05:28:05.221Z,1028.88
2017-12-22T05:29:05.199Z,1028.94
2017-12-22T05:30:05.176Z,1028.97
2017-12-22T05:31:05.157Z,1028.96
2017-12-22T05:32:05.130Z,1029.00
2017-12-22T05:33:05.107Z,1028.99
2017-12-22T05:34:05.092Z,1028.99
2017-12-22T05:35:05.063Z,1028.98
2017-12-22T05:36:05.039Z,1029.00
2017-12-22T05:37:05.017Z,1029.01
2017-12-22T05:38:04.994Z,1029.00
2017-12-22T05:39:04.972Z,1029.00
2017-12-22T05:40:04.948Z,1029.01
2017-12-22T05:41:04.926Z,1028.96
2017-12-22T05:42:04.903Z,1028.92
2017-12-22T05:43:04.880Z,1028.88
2017-12-22T05:44:04.856Z,1028.86
2017-12-22T05:45:04.835Z,1028.87
2017-12-22T05:46:04.813Z,1028.90
2017-12-22T05:47:04.790Z,1028.91
2017-12-22T05:48:04.766Z,1028.91
2017-12-22T05:49:04.743Z,1028.93
2017-12-22T05:50:04.721Z,1028.98
2017-12-22T05:51:04.697Z,1028.99
2017-12-22T05:52:04.681Z,1028.98
2017-12-22T05:53:04.652Z,1028.97
2017-12-22T05:54:04.629Z,1028.94
2017-12-22T05:55:04.607Z,1028.94
2017-12-22T05:56:04.582Z,1028.92
2017-12-22T05:57:04.560Z,1028.91
2017-12-22T05:58:04.537Z,1028.91
2017-12-22T05:59:04.515Z,1028.90
2017-12-22T06:00:04.490Z,1028.88
2017-12-22T06:01:04.468Z,1028.87
2017-12-22T06:02:04.445Z,1028.87
2017-12-22T06:03:04.422Z,1028.87
2017-12-22T06:04:04.502Z,1028.89
2017-12-22T06:05:04.377Z,1028.89
2017-12-22T06:06:04.354Z,1028.88
2017-12-22T06:07:04.331Z,1028.89
2017-12-22T06:08:04.307Z,1028.89
2017-12-22T06:09:04.785Z,1028.94
2017-12-22T06:10:04.261Z,1028.89
2017-12-22T06:11:04.239Z,1028.90
2017-12-22T06:12:04.215Z,1028.90
2017-12-22T06:13:04.191Z,1028.94
2017-12-22T06:14:04.172Z,1028.93
2017-12-22T06:15:04.146Z,1028.89
2017-12-22T06:16:04.223Z,1028.88
2017-12-22T06:17:04.099Z,1028.91
2017-12-22T06:18:04.078Z,1028.94
2017-12-22T06:19:04.055Z,1028.88
2017-12-22T06:20:04.031Z,1028.87
2017-12-22T06:21:04.007Z,1028.91
2017-12-22T06:22:03.985Z,1028.88
2017-12-22T06:23:03.962Z,1028.87
2017-12-22T06:24:03.937Z,1028.84
2017-12-22T06:25:03.915Z,1028.80
2017-12-22T06:26:03.893Z,1028.80
2017-12-22T06:27:03.870Z,1028.84
2017-12-22T06:28:03.847Z,1028.84
2017-12-22T06:29:04.624Z,1028.85
2017-12-22T06:30:03.800Z,1028.84
2017-12-22T06:31:03.777Z,1028.85
2017-12-22T06:32:03.753Z,1028.81
2017-12-22T06:33:03.730Z,1028.81
2017-12-22T06:34:03.706Z,1028.84
2017-12-22T06:35:03.684Z,1028.86
2017-12-22T06:36:03.659Z,1028.88
2017-12-22T06:37:03.637Z,1028.88
2017-12-22T06:38:03.614Z,1028.90
2017-12-22T06:39:03.690Z,1028.90
2017-12-22T06:40:03.567Z,1028.93
2017-12-22T06:41:03.545Z,1028.94
2017-12-22T06:42:03.522Z,1028.94
2017-12-22T06:43:03.498Z,1028.92
2017-12-22T06:44:03.625Z,1028.93
2017-12-22T06:45:03.451Z,1028.94
2017-12-22T06:46:03.428Z,1028.97
2017-12-22T06:47:03.424Z,1028.96
2017-12-22T06:48:03.382Z,1028.97
2017-12-22T06:49:03.360Z,1028.97
2017-12-22T06:50:03.337Z,1028.95
2017-12-22T06:51:03.315Z,1028.91
2017-12-22T06:52:03.289Z,1028.88
2017-12-22T06:53:03.267Z,1028.90
2017-12-22T06:54:03.343Z,1028.88
2017-12-22T06:55:03.221Z,1028.91
2017-12-22T06:56:03.197Z,1028.86
2017-12-22T06:57:03.174Z,1028.87
2017-12-22T06:58:03.150Z,1028.93
2017-12-22T06:59:03.128Z,1028.89
2017-12-22T07:00:03.106Z,1028.93
2017-12-22T07:01:03.080Z,1028.94
2017-12-22T07:02:03.057Z,1028.90
2017-12-22T07:03:03.036Z,1028.88
2017-12-22T07:04:03.012Z,1028.84
2017-12-22T07:05:03.239Z,1028.83
2017-12-22T07:06:02.966Z,1028.85
2017-12-22T07:07:02.942Z,1028.86
2017-12-22T07:08:02.920Z,1028.84
2017-12-22T07:09:02.895Z,1028.88
2017-12-22T07:10:02.874Z,1028.86
2017-12-22T07:11:02.849Z,1028.87
2017-12-22T07:12:02.826Z,1028.85
2017-12-22T07:13:02.803Z,1028.87
2017-12-22T07:14:02.786Z,1028.88
2017-12-22T07:15:02.906Z,1028.90
2017-12-22T07:16:02.739Z,1028.93
2017-12-22T07:17:02.709Z,1028.93
2017-12-22T07:18:02.688Z,1028.98
2017-12-22T07:19:02.664Z,1029.05
2017-12-22T07:20:02.894Z,1029.05
2017-12-22T07:21:02.618Z,1029.12
2017-12-22T07:22:02.595Z,1029.16
2017-12-22T07:23:02.572Z,1029.18
2017-12-22T07:24:02.550Z,1029.19
2017-12-22T07:25:02.526Z,1029.18
2017-12-22T07:26:02.503Z,1029.20
2017-12-22T07:27:02.481Z,1029.16
2017-12-22T07:28:02.456Z,1029.22
2017-12-22T07:29:02.434Z,1029.22
2017-12-22T07:30:02.410Z,1029.21
2017-12-22T07:31:02.388Z,1029.25
2017-12-22T07:32:02.365Z,1029.21
2017-12-22T07:33:02.342Z,1029.18
2017-12-22T07:34:02.320Z,1029.18
2017-12-22T07:35:02.297Z,1029.18
2017-12-22T07:36:02.272Z,1029.16
2017-12-22T07:37:02.500Z,1029.23
2017-12-22T07:38:02.226Z,1029.29
2017-12-22T07:39:02.205Z,1029.33
2017-12-22T07:40:02.180Z,1029.35
2017-12-22T07:41:02.158Z,1029.29
2017-12-22T07:42:02.134Z,1029.31
2017-12-22T07:43:02.112Z,1029.29
2017-12-22T07:44:02.088Z,1029.30
2017-12-22T07:45:02.067Z,1029.32
2017-12-22T07:46:02.042Z,1029.32
2017-12-22T07:47:02.020Z,1029.32
2017-12-22T07:48:02.000Z,1029.30
2017-12-22T07:49:01.975Z,1029.29
2017-12-22T07:50:01.950Z,1029.30
2017-12-22T07:51:01.929Z,1029.29
2017-12-22T07:52:01.912Z,1029.30
2017-12-22T07:53:01.881Z,1029.25
2017-12-22T07:54:01.859Z,1029.31
2017-12-22T07:55:01.843Z,1029.30
2017-12-22T07:56:01.819Z,1029.30
2017-12-22T07:57:01.790Z,1029.35
2017-12-22T07:58:01.768Z,1029.33
2017-12-22T07:59:01.743Z,1029.38
2017-12-22T08:00:01.722Z,1029.32
2017-12-22T08:01:01.696Z,1029.30
2017-12-22T08:02:01.676Z,1029.32
2017-12-22T08:03:01.652Z,1029.34
2017-12-22T08:04:02.428Z,1029.35
2017-12-22T08:05:01.605Z,1029.34
2017-12-22T08:06:01.583Z,1029.35
2017-12-22T08:07:01.560Z,1029.46
2017-12-22T08:08:01.537Z,1029.58
2017-12-22T08:09:01.513Z,1029.59
2017-12-22T08:10:01.491Z,1029.55
2017-12-22T08:11:01.469Z,1029.57
2017-12-22T08:12:01.445Z,1029.52
2017-12-22T08:13:01.423Z,1029.53
2017-12-22T08:14:01.400Z,1029.47
2017-12-22T08:15:01.376Z,1029.44
2017-12-22T08:16:01.354Z,1029.38
2017-12-22T08:17:01.331Z,1029.38
2017-12-22T08:18:01.308Z,1029.37
2017-12-22T08:19:01.286Z,1029.41
2017-12-22T08:20:01.261Z,1029.40
2017-12-22T08:21:01.490Z,1029.46
2017-12-22T08:22:01.216Z,1029.49
2017-12-22T08:23:01.193Z,1029.48
2017-12-22T08:24:01.170Z,1029.45
2017-12-22T08:25:01.146Z,1029.48
2017-12-22T08:26:01.225Z,1029.53
2017-12-22T08:27:01.101Z,1029.54
2017-12-22T08:28:01.078Z,1029.55
2017-12-22T08:29:01.056Z,1029.57
2017-12-22T08:30:01.033Z,1029.60
2017-12-22T08:31:01.010Z,1029.61
2017-12-22T08:32:00.985Z,1029.65
2017-12-22T08:33:00.963Z,1029.66
2017-12-22T08:34:00.941Z,1029.67
2017-12-22T08:35:00.917Z,1029.61
2017-12-22T08:36:00.895Z,1029.60
2017-12-22T08:37:00.872Z,1029.63
2017-12-22T08:38:00.849Z,1029.64
2017-12-22T08:39:00.827Z,1029.64
2017-12-22T08:40:00.803Z,1029.68
2017-12-22T08:41:00.930Z,1029.72
2017-12-22T08:42:00.757Z,1029.79
2017-12-22T08:43:00.735Z,1029.78
2017-12-22T08:44:00.712Z,1029.83
2017-12-22T08:45:00.690Z,1029.85
2017-12-22T08:46:00.666Z,1029.85
2017-12-22T08:47:00.645Z,1029.93
2017-12-22T08:48:00.620Z,1029.92
2017-12-22T08:49:00.598Z,1029.92
2017-12-22T08:50:00.575Z,1029.93
2017-12-22T08:51:00.554Z,1029.88
2017-12-22T08:52:00.529Z,1029.88
2017-12-22T08:53:00.506Z,1029.91
2017-12-22T08:54:00.484Z,1029.94
2017-12-22T08:55:00.461Z,1029.97
2017-12-22T08:56:00.438Z,1030.00
2017-12-22T08:57:00.415Z,1029.98
2017-12-22T08:58:00.393Z,1030.06
2017-12-22T08:59:00.520Z,1030.19
2017-12-22T09:00:00.346Z,1030.28
2017-12-22T09:01:00.323Z,1030.30
2017-12-22T09:02:00.304Z,1030.31
2017-12-22T09:03:00.277Z,1030.33
2017-12-22T09:04:00.252Z,1030.31
2017-12-22T09:05:00.231Z,1030.33
2017-12-22T09:06:00.207Z,1030.32
2017-12-22T09:07:00.184Z,1030.33
2017-12-22T09:08:00.160Z,1030.35
2017-12-22T09:09:00.139Z,1030.39
2017-12-22T09:10:00.116Z,1030.40
2017-12-22T09:11:00.093Z,1030.45
2017-12-22T09:12:00.068Z,1030.48
2017-12-22T09:13:00.046Z,1030.53
2017-12-22T09:14:00.023Z,1030.56
2017-12-22T09:14:59.999Z,1030.59
2017-12-22T09:15:59.976Z,1030.55
2017-12-22T09:16:59.953Z,1030.54
2017-12-22T09:17:59.930Z,1030.58
2017-12-22T09:18:59.953Z,1030.59
2017-12-22T09:19:59.884Z,1030.54
2017-12-22T09:20:59.861Z,1030.52
2017-12-22T09:21:59.837Z,1030.55
2017-12-22T09:22:59.815Z,1030.54
2017-12-22T09:23:59.790Z,1030.54
2017-12-22T09:24:59.767Z,1030.57
2017-12-22T09:25:59.744Z,1030.52
2017-12-22T09:26:59.722Z,1030.56
2017-12-22T09:27:59.698Z,1030.53
2017-12-22T09:28:59.677Z,1030.47
2017-12-22T09:29:59.653Z,1030.41
2017-12-22T09:30:59.629Z,1030.34
2017-12-22T09:31:59.606Z,1030.37
2017-12-22T09:32:59.583Z,1030.42
2017-12-22T09:33:59.659Z,1030.51
2017-12-22T09:34:59.536Z,1030.48
2017-12-22T09:35:59.513Z,1030.43
2017-12-22T09:36:59.491Z,1030.38
2017-12-22T09:37:59.468Z,1030.37
2017-12-22T09:39:00.396Z,1030.43
2017-12-22T09:39:59.422Z,1030.46
2017-12-22T09:40:59.404Z,1030.50
2017-12-22T09:41:59.377Z,1030.47
2017-12-22T09:42:59.353Z,1030.51
2017-12-22T09:43:59.331Z,1030.54
2017-12-22T09:44:59.459Z,1030.54
2017-12-22T09:45:59.285Z,1030.56
2017-12-22T09:46:59.263Z,1030.57
2017-12-22T09:47:59.238Z,1030.63
2017-12-22T09:48:59.216Z,1030.61
2017-12-22T09:49:59.195Z,1030.69
2017-12-22T09:50:59.176Z,1030.69
2017-12-22T09:51:59.149Z,1030.69
2017-12-22T09:52:59.126Z,1030.74
2017-12-22T09:53:59.107Z,1030.72
2017-12-22T09:54:59.232Z,1030.72
2017-12-22T09:55:59.056Z,1030.70
2017-12-22T09:56:59.035Z,1030.68
2017-12-22T09:57:59.013Z,1030.65
2017-12-22T09:58:58.991Z,1030.69
2017-12-22T09:59:58.967Z,1030.62
2017-12-22T10:00:59.096Z,1030.58
2017-12-22T10:01:58.923Z,1030.61
2017-12-22T10:02:58.899Z,1030.63
2017-12-22T10:03:58.883Z,1030.66
2017-12-22T10:04:58.854Z,1030.67
2017-12-22T10:05:58.981Z,1030.69
2017-12-22T10:06:58.809Z,1030.63
2017-12-22T10:07:58.785Z,1030.58
2017-12-22T10:08:58.761Z,1030.59
2017-12-22T10:09:58.740Z,1030.54
2017-12-22T10:10:58.717Z,1030.55
2017-12-22T10:11:58.695Z,1030.52
2017-12-22T10:12:58.672Z,1030.57
2017-12-22T10:13:58.648Z,1030.59
2017-12-22T10:14:58.626Z,1030.56
2017-12-22T10:15:58.602Z,1030.62
2017-12-22T10:16:58.582Z,1030.59
2017-12-22T10:17:58.557Z,1030.55
2017-12-22T10:18:58.536Z,1030.54
2017-12-22T10:19:58.512Z,1030.56
2017-12-22T10:20:58.488Z,1030.57
2017-12-22T10:21:58.467Z,1030.55
2017-12-22T10:22:58.445Z,1030.54
2017-12-22T10:23:58.421Z,1030.52
2017-12-22T10:24:58.399Z,1030.51
2017-12-22T10:25:58.376Z,1030.47
2017-12-22T10:26:58.353Z,1030.45
2017-12-22T10:27:58.330Z,1030.39
2017-12-22T10:28:58.309Z,1030.37
2017-12-22T10:29:58.335Z,1030.39
2017-12-22T10:30:58.265Z,1030.41
2017-12-22T10:31:58.240Z,1030.43
2017-12-22T10:32:58.218Z,1030.44
2017-12-22T10:33:58.198Z,1030.49
2017-12-22T10:34:58.176Z,1030.44
2017-12-22T10:35:58.301Z,1030.46
2017-12-22T10:36:58.128Z,1030.46
2017-12-22T10:37:58.106Z,1030.42
2017-12-22T10:38:58.085Z,1030.37
2017-12-22T10:39:58.061Z,1030.34
2017-12-22T10:40:58.038Z,1030.34
2017-12-22T10:41:58.016Z,1030.37
2017-12-22T10:42:57.995Z,1030.41
2017-12-22T10:43:57.970Z,1030.46
2017-12-22T10:44:57.950Z,1030.48
2017-12-22T10:45:57.927Z,1030.50
2017-12-22T10:46:57.904Z,1030.51
2017-12-22T10:47:57.882Z,1030.56
2017-12-22T10:48:57.859Z,1030.59
2017-12-22T10:49:57.838Z,1030.58
2017-12-22T10:50:57.965Z,1030.53
2017-12-22T10:51:57.791Z,1030.54
2017-12-22T10:52:57.770Z,1030.56
2017-12-22T10:53:57.748Z,1030.50
2017-12-22T10:54:57.725Z,1030.54
2017-12-22T10:55:58.503Z,1030.52
2017-12-22T10:56:57.681Z,1030.52
2017-12-22T10:57:57.658Z,1030.52
2017-12-22T10:58:57.636Z,1030.54
2017-12-22T10:59:57.613Z,1030.55
2017-12-22T11:00:57.591Z,1030.56
2017-12-22T11:01:57.570Z,1030.56
2017-12-22T11:02:57.548Z,1030.55
2017-12-22T11:03:57.530Z,1030.50
2017-12-22T11:04:57.502Z,1030.53
2017-12-22T11:05:57.480Z,1030.52
2017-12-22T11:06:57.458Z,1030.53
2017-12-22T11:07:57.436Z,1030.51
2017-12-22T11:08:57.413Z,1030.55
2017-12-22T11:09:57.391Z,1030.55
2017-12-22T11:10:57.627Z,1030.61
2017-12-22T11:11:57.347Z,1030.59
2017-12-22T11:12:57.326Z,1030.63
2017-12-22T11:13:57.303Z,1030.62
2017-12-22T11:14:57.282Z,1030.59
2017-12-22T11:15:57.358Z,1030.60
2017-12-22T11:16:57.236Z,1030.60
2017-12-22T11:17:57.216Z,1030.54
2017-12-22T11:18:57.193Z,1030.51
2017-12-22T11:19:57.170Z,1030.50
2017-12-22T11:20:57.148Z,1030.48
2017-12-22T11:21:57.127Z,1030.55
2017-12-22T11:22:57.105Z,1030.58
2017-12-22T11:23:57.082Z,1030.60
2017-12-22T11:24:57.061Z,1030.56
2017-12-22T11:25:57.039Z,1030.53
2017-12-22T11:26:57.016Z,1030.54
2017-12-22T11:27:56.994Z,1030.53
2017-12-22T11:28:56.971Z,1030.58
2017-12-22T11:29:56.949Z,1030.59
2017-12-22T11:30:56.928Z,1030.60
2017-12-22T11:31:56.906Z,1030.57
2017-12-22T11:32:56.885Z,1030.53
2017-12-22T11:33:56.861Z,1030.51
2017-12-22T11:34:56.841Z,1030.48
2017-12-22T11:35:56.818Z,1030.44
2017-12-22T11:36:56.795Z,1030.38
2017-12-22T11:37:56.774Z,1030.33
2017-12-22T11:38:56.752Z,1030.35
2017-12-22T11:39:56.729Z,1030.31
2017-12-22T11:40:56.709Z,1030.32
2017-12-22T11:41:56.688Z,1030.32
2017-12-22T11:42:56.665Z,1030.34
2017-12-22T11:43:56.644Z,1030.28
2017-12-22T11:44:56.621Z,1030.23
2017-12-22T11:45:56.600Z,1030.18
2017-12-22T11:46:56.580Z,1030.19
2017-12-22T11:47:56.556Z,1030.16
2017-12-22T11:48:56.685Z,1030.11
2017-12-22T11:49:56.513Z,1030.18
2017-12-22T11:50:56.492Z,1030.20
2017-12-22T11:51:56.469Z,1030.21
2017-12-22T11:52:56.453Z,1030.24
2017-12-22T11:53:56.425Z,1030.23
2017-12-22T11:54:56.403Z,1030.21
2017-12-22T11:55:56.381Z,1030.19
2017-12-22T11:56:56.359Z,1030.16
2017-12-22T11:57:56.338Z,1030.20
2017-12-22T11:58:56.317Z,1030.22
2017-12-22T11:59:56.295Z,1030.21
2017-12-22T12:00:56.272Z,1030.13
2017-12-22T12:01:56.251Z,1030.12
2017-12-22T12:02:56.229Z,1030.13
2017-12-22T12:03:56.208Z,1030.16
2017-12-22T12:04:56.187Z,1030.19